This is the latest recevied weather packets stored in our database for station/object W0BJ-1. If no packets are shown the sender has not sent any weather packets the latest 10 day(s).
| Time | Temp. | Humidity | Pressure | Rain* | Wind** | Luminosity | Snow |
|---|---|---|---|---|---|---|---|
| 1777050340 | 20.56° C | 74% | 1009.4 hPa | 0 mm | - | 527 W/m² | - |
| 1777047939 | 18.89° C | 81% | 1009 hPa | 0 mm | - | 515 W/m² | - |
| 1777047639 | 18.33° C | 83% | 1008.8 hPa | 0 mm | - | 545 W/m² | - |
| 1777046447 | 17.78° C | 90% | 1008.7 hPa | 0 mm | - | 501 W/m² | - |
| 1777044648 | 16.11° C | 93% | 1008.9 hPa | 0 mm | - | 415 W/m² | - |
| 1777041640 | 15° C | 93% | 1008.5 hPa | 0 mm | - | 165 W/m² | - |
| 1777041056 | 15° C | 93% | 1007.8 hPa | 0 mm | - | 132 W/m² | - |
| 1777040151 | 15° C | 93% | 1008.4 hPa | 0 mm | - | 74 W/m² | - |
| 1777039540 | 15° C | 93% | 1007.4 hPa | 0 mm | - | 54 W/m² | - |
| 1777038354 | 15° C | 93% | 1007.5 hPa | 0 mm | - | 47 W/m² | - |
| 1777037740 | 15° C | 93% | 1007.9 hPa | 0 mm | - | 47 W/m² | - |
| 1777036843 | 14.44° C | 92% | 1008.3 hPa | 0 mm | - | 49 W/m² | - |
| 1777036553 | 14.44° C | 93% | 1008.2 hPa | 0 mm | - | 21 W/m² | - |
| 1777032951 | 14.44° C | 92% | 1007.4 hPa | 1.78 mm | - | 11 W/m² | - |
| 1777027550 | 15° C | 92% | 1008 hPa | 0.25 mm | - | 0 W/m² | - |
| 1777026044 | 15° C | 91% | 1006.7 hPa | 0 mm | - | 0 W/m² | - |
| 1777025748 | 15° C | 91% | 1006.2 hPa | 0 mm | - | 0 W/m² | - |
| 1777025139 | 15° C | 91% | 1006.4 hPa | 0 mm | - | 0 W/m² | - |
| 1777024539 | 15° C | 91% | 1006.6 hPa | 0 mm | - | 0 W/m² | - |
| 1777022738 | 15° C | 91% | 1006.3 hPa | 0 mm | - | 0 W/m² | - |
| 1777022442 | 15° C | 90% | 1006.4 hPa | 0.25 mm | - | 0 W/m² | - |
| 1777017940 | 15.56° C | 88% | 1007.5 hPa | 1.27 mm | - | 0 W/m² | - |
| 1777017653 | 15.56° C | 87% | 1007.6 hPa | 1.02 mm | - | 0 W/m² | - |
| 1777016140 | 16.67° C | 83% | 1007.9 hPa | 0.76 mm | - | 0 W/m² | - |
| 1777015539 | 18.33° C | 76% | 1008.4 hPa | 0.25 mm | - | 0 W/m² | - |
* Rain latest hour (hover to see other rain measurements)
** Current wind speed in m/s (hover to see current wind gust speed)